Time;durP1;ratioP1;P1;durP2;ratioP2;P2;SDS_P1;SDS_P2;PMS_P1;PMS_P2;Temp;Humidity;BMP_temperature;BMP_pressure;BME280_temperature;BME280_humidity;BME280_pressure;Samples;Min_cycle;Max_cycle;Signal;HPM_P1;HPM_P2
2022/08/03 00:00:58;;;;;;;0.90;0.80;;;21.70;87.60;;;;;;5063926;28;20247;-38
2022/08/03 00:03:25;;;;;;;0.80;0.80;;;21.70;87.70;;;;;;5065855;28;20280;-39
2022/08/03 00:05:53;;;;;;;2.58;0.80;;;21.70;87.60;;;;;;5066878;28;20193;-38
2022/08/03 00:08:20;;;;;;;0.50;0.50;;;21.70;87.70;;;;;;5063601;28;20223;-38
2022/08/03 00:10:47;;;;;;;1.80;1.05;;;21.70;87.80;;;;;;5063866;28;20199;-39
2022/08/03 00:13:14;;;;;;;1.95;0.70;;;21.70;87.90;;;;;;5061969;28;20203;-38
2022/08/03 00:15:41;;;;;;;0.70;0.68;;;21.70;87.90;;;;;;5062827;28;20193;-38
2022/08/03 00:18:10;;;;;;;0.88;0.85;;;21.70;88.00;;;;;;5054545;28;20197;-48
2022/08/03 00:20:37;;;;;;;0.70;0.68;;;21.70;88.10;;;;;;5066562;28;21259;-47
2022/08/03 00:23:05;;;;;;;0.70;0.70;;;21.70;88.20;;;;;;5061556;28;21553;-47
2022/08/03 00:25:33;;;;;;;0.70;0.70;;;21.60;88.10;;;;;;5063286;28;20780;-48
2022/08/03 00:28:00;;;;;;;0.60;0.60;;;21.60;88.30;;;;;;5064810;28;20205;-45
2022/08/03 00:30:27;;;;;;;0.80;0.80;;;21.60;88.30;;;;;;5068165;28;20600;-46
2022/08/03 00:32:54;;;;;;;0.65;0.65;;;21.60;88.50;;;;;;5066528;28;20201;-47
2022/08/03 00:35:23;;;;;;;1.23;0.70;;;21.60;88.60;;;;;;5066779;28;20520;-45
2022/08/03 00:37:50;;;;;;;0.68;0.57;;;21.60;88.60;;;;;;5063648;28;20185;-44
2022/08/03 00:40:18;;;;;;;2.55;0.63;;;21.60;88.60;;;;;;5068698;28;20616;-47
2022/08/03 00:42:49;;;;;;;0.77;0.77;;;21.60;88.60;;;;;;5064106;28;20361;-47
2022/08/03 00:45:17;;;;;;;0.88;0.80;;;21.60;88.70;;;;;;5065402;28;20204;-45
2022/08/03 00:47:44;;;;;;;2.58;1.20;;;21.50;88.70;;;;;;5063632;28;20201;-45
2022/08/03 00:50:11;;;;;;;1.23;1.00;;;21.50;88.90;;;;;;5066304;28;20268;-46
2022/08/03 00:52:39;;;;;;;3.08;1.10;;;21.60;89.10;;;;;;5065392;28;20201;-46
2022/08/03 00:55:07;;;;;;;1.45;1.10;;;21.60;89.10;;;;;;5064929;28;20657;-45
2022/08/03 00:57:34;;;;;;;5.75;1.42;;;21.60;89.00;;;;;;5064130;28;20193;-46
2022/08/03 01:00:01;;;;;;;1.40;1.10;;;21.60;89.00;;;;;;5065130;28;20217;-44
2022/08/03 01:02:29;;;;;;;1.67;1.17;;;21.60;89.00;;;;;;5064873;28;20233;-45
2022/08/03 01:04:56;;;;;;;1.10;1.00;;;21.60;89.00;;;;;;5062687;28;20247;-46
2022/08/03 01:07:33;;;;;;;1.45;1.35;;;21.60;89.00;;;;;;5063066;28;20494;-46
2022/08/03 01:10:06;;;;;;;0.90;0.90;;;21.50;88.90;;;;;;5066928;28;20246;-42
2022/08/03 01:12:38;;;;;;;2.13;1.00;;;21.50;89.00;;;;;;5064083;28;20533;-45
2022/08/03 01:15:19;;;;;;;2.55;1.10;;;21.50;89.00;;;;;;5063894;28;20229;-41
2022/08/03 01:17:54;;;;;;;1.10;0.90;;;21.50;89.00;;;;;;5066354;28;20387;-42
2022/08/03 01:20:24;;;;;;;1.63;0.90;;;21.50;89.10;;;;;;5067442;28;20267;-43
2022/08/03 01:23:25;;;;;;;0.90;0.88;;;21.50;89.30;;;;;;5066547;28;20300;-45
2022/08/03 01:26:13;;;;;;;1.23;1.08;;;21.50;89.20;;;;;;5067074;28;20271;-39
2022/08/03 01:29:06;;;;;;;1.35;0.88;;;21.40;89.20;;;;;;5063329;28;20217;-41
2022/08/03 01:31:40;;;;;;;1.38;0.90;;;21.40;89.30;;;;;;5068696;28;20208;-43
2022/08/03 01:34:11;;;;;;;1.17;1.05;;;21.40;89.40;;;;;;5069908;28;20189;-42
2022/08/03 01:36:48;;;;;;;2.28;1.13;;;21.40;89.40;;;;;;5070019;28;20189;-42
2022/08/03 01:39:16;;;;;;;1.42;1.27;;;21.40;89.50;;;;;;5067766;28;20193;-42
2022/08/03 01:41:49;;;;;;;1.40;1.13;;;21.30;89.50;;;;;;5068866;28;20728;-42
2022/08/03 01:44:16;;;;;;;1.23;1.02;;;21.30;89.60;;;;;;5064219;28;20198;-42
2022/08/03 01:46:47;;;;;;;1.27;1.17;;;21.30;89.60;;;;;;5067311;28;20203;-43
2022/08/03 01:49:16;;;;;;;1.17;1.05;;;21.30;89.60;;;;;;5069159;28;20271;-41
2022/08/03 01:51:44;;;;;;;0.98;0.98;;;21.30;89.70;;;;;;5069206;28;20276;-43
2022/08/03 01:54:12;;;;;;;1.27;1.20;;;21.30;90.20;;;;;;5066929;28;20688;-39
2022/08/03 01:56:41;;;;;;;1.92;1.10;;;21.30;89.70;;;;;;5069626;28;20292;-44
2022/08/03 01:59:09;;;;;;;0.93;0.93;;;21.40;89.80;;;;;;5063324;28;20204;-45
2022/08/03 02:01:38;;;;;;;1.33;1.00;;;21.40;89.80;;;;;;5067731;28;20629;-42
2022/08/03 02:04:08;;;;;;;1.10;1.00;;;21.30;89.80;;;;;;5066828;28;20189;-39
2022/08/03 02:06:37;;;;;;;4.20;1.20;;;21.30;89.80;;;;;;5067321;28;20217;-42
2022/08/03 02:09:05;;;;;;;1.33;0.88;;;21.30;89.80;;;;;;5068168;28;20205;-45
2022/08/03 02:11:35;;;;;;;1.00;0.95;;;21.30;90.00;;;;;;5069184;28;20288;-41
2022/08/03 02:14:05;;;;;;;1.08;1.00;;;21.30;90.00;;;;;;5067127;28;20625;-40
2022/08/03 02:16:34;;;;;;;1.63;1.05;;;21.20;90.00;;;;;;5067339;28;20204;-45
2022/08/03 02:19:04;;;;;;;0.80;0.80;;;21.20;90.00;;;;;;5065036;28;20656;-41
2022/08/03 02:21:35;;;;;;;0.88;0.88;;;21.20;90.00;;;;;;5067201;28;20272;-47
2022/08/03 02:24:03;;;;;;;0.77;0.77;;;21.10;90.10;;;;;;5068943;28;20259;-39
2022/08/03 02:26:31;;;;;;;1.17;0.98;;;21.10;90.10;;;;;;5067839;28;20197;-47
2022/08/03 02:29:05;;;;;;;0.90;0.90;;;21.10;90.10;;;;;;5066124;28;20201;-43
2022/08/03 02:31:36;;;;;;;1.20;0.80;;;21.10;90.50;;;;;;5066994;28;20270;-42
2022/08/03 02:34:09;;;;;;;0.80;0.80;;;21.10;90.20;;;;;;5066531;28;20258;-42
2022/08/03 02:36:39;;;;;;;0.80;0.80;;;21.10;90.20;;;;;;5069295;28;20189;-40
2022/08/03 02:39:10;;;;;;;0.85;0.85;;;21.10;90.30;;;;;;5071082;28;20189;-42
2022/08/03 02:41:43;;;;;;;1.38;0.93;;;21.10;90.30;;;;;;5070505;28;20683;-38
2022/08/03 02:44:11;;;;;;;1.55;0.95;;;21.10;90.30;;;;;;5067094;28;20192;-38
2022/08/03 02:46:43;;;;;;;1.20;1.10;;;21.10;90.30;;;;;;5065745;28;20198;-46
2022/08/03 02:49:12;;;;;;;1.50;1.00;;;21.10;90.30;;;;;;5065429;28;20542;-46
2022/08/03 02:51:41;;;;;;;1.10;1.00;;;21.10;90.30;;;;;;5066781;28;20189;-42
2022/08/03 02:54:09;;;;;;;0.85;0.85;;;21.10;90.30;;;;;;5065980;28;20197;-39
2022/08/03 02:56:37;;;;;;;0.90;0.90;;;21.10;90.30;;;;;;5067567;28;20197;-42
2022/08/03 02:59:06;;;;;;;0.90;0.90;;;21.10;90.40;;;;;;5063965;28;20665;-39
2022/08/03 03:01:33;;;;;;;1.17;1.08;;;21.00;90.40;;;;;;5068613;28;20197;-40
2022/08/03 03:04:00;;;;;;;1.88;1.10;;;21.00;90.40;;;;;;5066727;28;20189;-43
2022/08/03 03:06:29;;;;;;;1.83;1.30;;;21.00;90.40;;;;;;5066118;28;20272;-45
2022/08/03 03:08:59;;;;;;;1.17;1.10;;;21.00;90.40;;;;;;5065092;28;20205;-38
2022/08/03 03:11:27;;;;;;;2.15;1.20;;;21.00;90.40;;;;;;5065724;28;20626;-39
2022/08/03 03:13:56;;;;;;;3.28;1.45;;;21.00;90.50;;;;;;5066782;28;20198;-39
2022/08/03 03:16:25;;;;;;;3.28;1.35;;;20.90;90.50;;;;;;5070015;28;20272;-39
2022/08/03 03:18:54;;;;;;;3.35;1.35;;;20.90;90.50;;;;;;5067215;28;20189;-39
2022/08/03 03:21:23;;;;;;;6.32;1.95;;;21.00;90.50;;;;;;5068568;28;20268;-38
2022/08/03 03:23:52;;;;;;;6.03;1.85;;;21.00;90.50;;;;;;5067286;28;20241;-39
2022/08/03 03:26:20;;;;;;;3.35;1.52;;;21.00;90.50;;;;;;5069527;28;20267;-38
2022/08/03 03:28:47;;;;;;;2.97;1.70;;;21.00;90.60;;;;;;5065338;28;20674;-38
2022/08/03 03:31:14;;;;;;;2.10;1.88;;;21.00;90.60;;;;;;5066839;28;20268;-39
2022/08/03 03:33:41;;;;;;;2.05;1.48;;;21.00;90.60;;;;;;5069094;28;20203;-40
2022/08/03 03:36:10;;;;;;;2.58;1.30;;;21.00;90.70;;;;;;5065921;28;20272;-39
2022/08/03 03:38:37;;;;;;;4.65;1.15;;;20.90;90.70;;;;;;5067544;28;20617;-38
2022/08/03 03:41:05;;;;;;;1.90;1.27;;;20.90;90.70;;;;;;5066623;28;20556;-38
2022/08/03 03:43:33;;;;;;;1.75;1.40;;;20.90;90.70;;;;;;5065501;28;20224;-38
2022/08/03 03:46:01;;;;;;;2.65;1.10;;;20.90;90.70;;;;;;5063570;28;20280;-38
2022/08/03 03:48:28;;;;;;;1.17;1.08;;;21.00;90.80;;;;;;5065740;28;20205;-39
2022/08/03 03:50:56;;;;;;;1.30;1.20;;;20.90;90.70;;;;;;5065359;28;20198;-38
2022/08/03 03:53:23;;;;;;;1.95;1.17;;;20.90;90.80;;;;;;5065282;28;20208;-38
2022/08/03 03:55:52;;;;;;;1.38;0.77;;;20.90;90.90;;;;;;5064114;28;20201;-38
2022/08/03 03:58:20;;;;;;;1.50;1.40;;;20.90;90.90;;;;;;5064245;28;20193;-38
2022/08/03 04:00:48;;;;;;;1.80;1.17;;;21.00;91.00;;;;;;5066934;28;20204;-37
2022/08/03 04:03:15;;;;;;;1.52;1.35;;;20.90;91.00;;;;;;5066266;28;20279;-39
2022/08/03 04:11:16;;;;;;;1.55;1.13;;;20.90;91.10;;;;;;5063862;28;20247;-44
2022/08/03 04:13:49;;;;;;;3.22;1.90;;;20.90;91.10;;;;;;5061323;28;20200;-46
2022/08/03 04:16:21;;;;;;;1.52;1.42;;;20.90;91.10;;;;;;5066513;28;20804;-42
2022/08/03 04:18:52;;;;;;;3.88;1.48;;;20.90;91.20;;;;;;5062471;28;20201;-45
2022/08/03 04:21:22;;;;;;;2.85;1.60;;;20.90;91.30;;;;;;5066588;28;20703;-41
2022/08/03 04:23:53;;;;;;;1.85;1.40;;;20.80;91.30;;;;;;5062455;28;20806;-45
2022/08/03 04:26:23;;;;;;;2.85;1.48;;;20.80;91.30;;;;;;5065332;28;20208;-41
2022/08/03 04:28:51;;;;;;;2.33;1.70;;;20.90;91.40;;;;;;5064174;28;20271;-45
2022/08/03 04:31:22;;;;;;;1.52;1.23;;;20.80;91.40;;;;;;5062267;28;20220;-41
2022/08/03 04:33:51;;;;;;;1.27;1.17;;;20.90;91.50;;;;;;5063815;28;20197;-45
2022/08/03 04:36:21;;;;;;;2.10;1.35;;;20.80;91.40;;;;;;5065721;28;20201;-44
2022/08/03 04:38:59;;;;;;;2.90;1.35;;;20.80;91.50;;;;;;5064404;28;20275;-39
2022/08/03 04:41:27;;;;;;;3.13;1.60;;;20.80;91.70;;;;;;5062095;28;20300;-44
2022/08/03 04:43:57;;;;;;;3.40;1.77;;;20.80;91.80;;;;;;5062208;28;20268;-43
2022/08/03 04:46:29;;;;;;;3.33;1.70;;;20.80;91.80;;;;;;5062311;28;20529;-41
2022/08/03 04:48:57;;;;;;;3.72;2.05;;;20.80;91.80;;;;;;5067380;28;20235;-41
2022/08/03 04:51:24;;;;;;;2.72;1.80;;;20.80;91.90;;;;;;5061666;28;20208;-42
2022/08/03 04:53:51;;;;;;;3.30;1.95;;;20.80;91.90;;;;;;5063737;28;20192;-43
2022/08/03 04:56:18;;;;;;;2.80;1.90;;;20.80;92.00;;;;;;5066518;28;20379;-37
2022/08/03 04:58:45;;;;;;;2.50;2.08;;;20.80;92.00;;;;;;5062928;28;20219;-43
2022/08/03 05:01:12;;;;;;;3.42;1.80;;;20.80;92.10;;;;;;5059657;28;20200;-43
2022/08/03 05:03:41;;;;;;;3.45;1.90;;;20.70;92.30;;;;;;5062654;28;20215;-46
2022/08/03 05:06:08;;;;;;;4.03;1.90;;;20.70;92.40;;;;;;5065603;28;20199;-44
2022/08/03 05:08:35;;;;;;;4.10;1.58;;;20.70;92.50;;;;;;5069018;28;20213;-44
2022/08/03 05:11:02;;;;;;;2.25;1.58;;;20.70;92.60;;;;;;5068953;28;20193;-44
2022/08/03 05:13:30;;;;;;;3.63;1.77;;;20.70;92.60;;;;;;5064873;28;20865;-45
2022/08/03 05:15:57;;;;;;;7.80;1.90;;;20.70;92.80;;;;;;5071632;28;20198;-43
2022/08/03 05:18:24;;;;;;;5.03;1.92;;;20.70;92.90;;;;;;5067130;28;20201;-42
2022/08/03 05:20:52;;;;;;;6.72;2.00;;;20.70;92.90;;;;;;5070754;28;20494;-48
2022/08/03 05:23:19;;;;;;;2.75;1.40;;;20.70;93.30;;;;;;5068215;28;20328;-45
2022/08/03 05:25:46;;;;;;;2.90;1.60;;;20.70;93.00;;;;;;5070804;28;20189;-42
2022/08/03 05:28:13;;;;;;;3.75;1.63;;;20.70;93.10;;;;;;5066926;28;20324;-44
2022/08/03 05:30:40;;;;;;;8.60;2.10;;;20.70;93.10;;;;;;5071235;28;20213;-45
2022/08/03 05:33:07;;;;;;;2.25;1.80;;;20.70;93.20;;;;;;5068952;28;20576;-44
2022/08/03 05:35:34;;;;;;;2.03;1.33;;;20.80;93.20;;;;;;5069893;28;20282;-43
2022/08/03 05:38:03;;;;;;;4.70;2.03;;;20.80;93.20;;;;;;5067185;28;20286;-44
2022/08/03 05:40:30;;;;;;;1.58;1.48;;;20.80;93.30;;;;;;5068549;28;20185;-44
2022/08/03 05:42:58;;;;;;;6.45;2.42;;;20.90;93.30;;;;;;5065557;28;20197;-47
2022/08/03 05:45:25;;;;;;;2.90;1.50;;;20.90;93.40;;;;;;5069222;28;20288;-47
2022/08/03 05:47:52;;;;;;;3.65;1.70;;;20.90;93.50;;;;;;5068973;28;20225;-40
2022/08/03 05:50:20;;;;;;;6.13;2.00;;;20.90;93.50;;;;;;5069431;28;20547;-40
2022/08/03 05:52:47;;;;;;;6.95;2.22;;;20.90;93.60;;;;;;5069455;28;20545;-41
2022/08/03 05:55:16;;;;;;;4.85;1.80;;;21.00;93.70;;;;;;5067116;28;20194;-46
2022/08/03 05:57:46;;;;;;;3.47;1.40;;;20.90;93.70;;;;;;5067699;28;20571;-46
2022/08/03 06:00:14;;;;;;;4.10;1.95;;;21.00;93.80;;;;;;5066239;28;20185;-40
2022/08/03 06:02:42;;;;;;;1.95;1.10;;;21.00;93.90;;;;;;5064663;28;20196;-40
2022/08/03 06:05:10;;;;;;;2.95;1.60;;;21.00;93.80;;;;;;5056667;28;20201;-39
2022/08/03 06:07:37;;;;;;;4.60;1.92;;;21.10;94.00;;;;;;5059030;28;20557;-40
2022/08/03 06:10:06;;;;;;;3.90;1.50;;;21.10;94.10;;;;;;5069567;28;20376;-44
2022/08/03 06:12:35;;;;;;;2.38;1.77;;;21.00;94.20;;;;;;5067231;28;20916;-44
2022/08/03 06:15:03;;;;;;;7.45;1.77;;;21.10;94.30;;;;;;5063747;28;20224;-41
2022/08/03 06:17:30;;;;;;;5.60;1.65;;;21.10;94.40;;;;;;5065786;28;20185;-40
2022/08/03 06:19:58;;;;;;;4.20;1.98;;;21.10;94.50;;;;;;5066428;28;20198;-43
2022/08/03 06:22:25;;;;;;;3.08;1.58;;;21.10;94.70;;;;;;5069786;28;20193;-40
2022/08/03 06:24:52;;;;;;;4.65;1.75;;;21.10;94.70;;;;;;5062625;28;20544;-38
2022/08/03 06:27:19;;;;;;;1.15;1.13;;;21.20;94.80;;;;;;5065288;28;20227;-39
2022/08/03 06:29:47;;;;;;;1.58;0.98;;;21.20;94.80;;;;;;5062258;28;20210;-39
2022/08/03 06:32:15;;;;;;;4.22;1.63;;;21.30;94.80;;;;;;5064104;28;20843;-41
2022/08/03 06:34:42;;;;;;;4.13;1.70;;;21.30;95.00;;;;;;5061065;28;20194;-44
2022/08/03 06:37:09;;;;;;;4.22;2.10;;;21.40;95.20;;;;;;5064632;28;20219;-39
2022/08/03 06:39:36;;;;;;;2.25;1.40;;;21.50;95.30;;;;;;5066961;28;20276;-39
2022/08/03 06:42:03;;;;;;;2.45;1.40;;;21.50;95.30;;;;;;5063931;28;20212;-42
2022/08/03 06:44:30;;;;;;;2.15;1.50;;;21.60;95.20;;;;;;5059086;28;20204;-39
2022/08/03 06:46:59;;;;;;;6.68;1.85;;;21.70;95.30;;;;;;5066984;28;20197;-40
2022/08/03 06:49:26;;;;;;;4.03;1.85;;;21.70;95.40;;;;;;5066266;28;20209;-45
2022/08/03 06:51:53;;;;;;;2.38;1.63;;;21.80;95.40;;;;;;5065235;28;20665;-42
2022/08/03 06:54:23;;;;;;;3.75;1.90;;;21.90;95.40;;;;;;5065820;28;20200;-40
2022/08/03 06:56:50;;;;;;;3.90;1.88;;;21.90;95.40;;;;;;5066029;28;20770;-41
2022/08/03 06:59:17;;;;;;;2.97;1.80;;;22.00;95.50;;;;;;5062302;28;20269;-40
2022/08/03 07:01:44;;;;;;;10.25;2.58;;;22.10;95.50;;;;;;5065356;28;20201;-42
2022/08/03 07:04:12;;;;;;;3.97;1.90;;;22.10;95.50;;;;;;5063262;28;20193;-41
2022/08/03 07:06:39;;;;;;;6.65;1.80;;;22.20;95.50;;;;;;5066132;28;20219;-46
2022/08/03 07:09:06;;;;;;;6.32;1.70;;;22.30;95.50;;;;;;5065525;28;20237;-39
2022/08/03 07:11:33;;;;;;;2.28;1.42;;;22.40;95.50;;;;;;5065269;28;20276;-44
2022/08/03 07:14:00;;;;;;;1.90;1.58;;;22.40;95.40;;;;;;5063213;28;20197;-45
2022/08/03 07:16:27;;;;;;;5.82;2.30;;;22.50;95.30;;;;;;5064502;28;20280;-38
2022/08/03 07:18:54;;;;;;;1.52;1.35;;;22.60;95.20;;;;;;5059775;28;20641;-41
2022/08/03 07:21:23;;;;;;;3.85;1.73;;;22.70;95.10;;;;;;5065963;28;20213;-41
2022/08/03 07:23:50;;;;;;;5.28;1.80;;;22.80;95.20;;;;;;5067601;28;20233;-45
2022/08/03 07:26:17;;;;;;;4.60;2.03;;;22.90;95.20;;;;;;5066915;28;20302;-44
2022/08/03 07:28:44;;;;;;;4.07;1.95;;;22.90;95.10;;;;;;5063320;28;20573;-41
2022/08/03 07:31:11;;;;;;;6.05;1.67;;;23.10;95.10;;;;;;5065619;28;20284;-39
2022/08/03 07:33:38;;;;;;;3.33;2.15;;;23.10;94.90;;;;;;5064632;28;20320;-39
2022/08/03 07:36:05;;;;;;;5.57;2.03;;;23.30;94.80;;;;;;5063178;28;20250;-38
2022/08/03 07:38:35;;;;;;;5.20;1.92;;;23.40;94.60;;;;;;5064638;28;20403;-39
2022/08/03 07:41:02;;;;;;;6.60;2.00;;;23.50;94.50;;;;;;5066011;28;20280;-40
2022/08/03 07:43:29;;;;;;;5.68;1.80;;;23.50;94.40;;;;;;5063798;28;20198;-38
2022/08/03 07:45:56;;;;;;;6.60;1.85;;;23.60;94.30;;;;;;5064463;28;20315;-39
2022/08/03 07:48:23;;;;;;;6.72;1.80;;;23.70;94.00;;;;;;5065389;28;20204;-41
2022/08/03 07:50:50;;;;;;;4.90;2.10;;;23.80;93.60;;;;;;5062689;28;20224;-38
2022/08/03 07:53:17;;;;;;;2.15;1.70;;;23.80;93.50;;;;;;5063207;28;20225;-39
2022/08/03 07:55:46;;;;;;;4.78;1.42;;;24.00;93.40;;;;;;5065210;28;20193;-42
2022/08/03 07:58:14;;;;;;;2.72;1.70;;;24.00;93.30;;;;;;5063289;28;20230;-39
2022/08/03 08:00:43;;;;;;;5.40;1.73;;;24.10;93.10;;;;;;5066064;28;20292;-41
2022/08/03 08:03:10;;;;;;;2.17;1.50;;;24.20;93.00;;;;;;5066430;28;20243;-40
2022/08/03 08:05:38;;;;;;;7.03;2.00;;;24.30;93.00;;;;;;5060460;28;20224;-39
2022/08/03 08:08:05;;;;;;;4.55;1.92;;;24.40;92.70;;;;;;5065809;28;20616;-45
2022/08/03 08:10:32;;;;;;;1.67;1.30;;;24.50;92.50;;;;;;5064476;28;20286;-39
2022/08/03 08:13:01;;;;;;;2.15;1.25;;;24.60;92.50;;;;;;5063091;28;20207;-39
2022/08/03 08:15:28;;;;;;;3.95;1.60;;;24.60;92.40;;;;;;5067249;28;20712;-38
2022/08/03 08:17:58;;;;;;;3.17;1.70;;;24.70;92.00;;;;;;5061486;28;20259;-38
2022/08/03 08:20:26;;;;;;;3.65;1.63;;;24.90;91.80;;;;;;5063708;28;20296;-37
2022/08/03 08:22:56;;;;;;;3.33;1.80;;;25.00;91.50;;;;;;5063429;28;20225;-41
2022/08/03 08:25:23;;;;;;;1.45;1.17;;;25.00;91.30;;;;;;5061335;28;20292;-38
2022/08/03 08:27:50;;;;;;;5.07;1.40;;;25.00;91.30;;;;;;5059943;28;20186;-40
2022/08/03 08:30:21;;;;;;;3.85;1.80;;;25.10;91.00;;;;;;5064097;28;20378;-39
2022/08/03 08:32:48;;;;;;;3.65;1.88;;;25.20;91.00;;;;;;5062434;28;20227;-38
2022/08/03 08:35:17;;;;;;;2.33;1.30;;;25.30;90.70;;;;;;5064226;28;20196;-42
2022/08/03 08:37:44;;;;;;;1.40;1.30;;;25.30;90.50;;;;;;5061591;28;20202;-40
2022/08/03 08:40:13;;;;;;;2.20;1.40;;;25.40;90.30;;;;;;5067980;28;20200;-40
2022/08/03 08:42:40;;;;;;;1.58;1.48;;;25.50;90.00;;;;;;5064162;28;20562;-40
2022/08/03 08:45:08;;;;;;;3.42;1.77;;;25.50;89.50;;;;;;5069457;28;20330;-40
2022/08/03 08:47:39;;;;;;;1.65;1.48;;;25.70;88.60;;;;;;5067323;28;20207;-39
2022/08/03 08:50:08;;;;;;;3.88;1.55;;;25.70;88.00;;;;;;5069707;28;20625;-42
2022/08/03 08:52:36;;;;;;;2.00;1.45;;;25.80;86.80;;;;;;5068999;28;20204;-42
2022/08/03 08:55:06;;;;;;;3.45;1.98;;;25.90;85.50;;;;;;5066402;28;20279;-38
2022/08/03 08:57:37;;;;;;;3.00;1.75;;;26.00;85.30;;;;;;5063668;28;20189;-41
2022/08/03 09:00:08;;;;;;;1.83;1.60;;;26.20;84.60;;;;;;5065259;28;20667;-46
2022/08/03 09:02:35;;;;;;;1.50;1.40;;;26.20;85.40;;;;;;5065615;28;20190;-40
2022/08/03 09:05:04;;;;;;;2.03;1.83;;;26.30;84.40;;;;;;5067602;28;20198;-39
2022/08/03 09:07:31;;;;;;;2.67;2.13;;;26.30;84.10;;;;;;5067236;28;20379;-39
2022/08/03 09:09:58;;;;;;;4.72;2.17;;;26.40;83.70;;;;;;5066749;28;20263;-39
2022/08/03 09:12:25;;;;;;;2.25;2.05;;;26.60;82.00;;;;;;5063628;28;20621;-42
2022/08/03 09:14:52;;;;;;;2.92;1.52;;;26.60;82.20;;;;;;5064244;28;20205;-42
2022/08/03 09:17:20;;;;;;;2.08;1.75;;;26.70;82.30;;;;;;5067018;28;20204;-42
2022/08/03 09:20:07;;;;;;;1.40;1.25;;;26.80;82.40;;;;;;5064556;28;20227;-40
2022/08/03 09:22:35;;;;;;;1.80;1.63;;;26.90;82.40;;;;;;5064419;28;20675;-38
2022/08/03 09:25:04;;;;;;;3.42;1.63;;;27.00;82.20;;;;;;5061210;28;20657;-39
2022/08/03 09:27:42;;;;;;;1.20;1.20;;;27.00;82.10;;;;;;5064637;28;20542;-40
2022/08/03 09:30:14;;;;;;;1.15;1.15;;;27.20;82.10;;;;;;5063166;28;20204;-44
2022/08/03 09:32:43;;;;;;;1.55;1.45;;;27.30;81.80;;;;;;5065404;28;20236;-42
2022/08/03 09:35:13;;;;;;;1.70;1.60;;;27.40;81.60;;;;;;5059938;28;20193;-40
2022/08/03 09:37:41;;;;;;;3.08;2.30;;;27.40;80.70;;;;;;5066146;28;20697;-44
2022/08/03 09:40:09;;;;;;;3.08;2.15;;;27.40;78.20;;;;;;5070428;28;20247;-44
2022/08/03 09:42:37;;;;;;;4.78;1.45;;;27.40;76.50;;;;;;5067407;28;20595;-42
2022/08/03 09:45:05;;;;;;;2.92;1.60;;;27.50;76.40;;;;;;5068023;28;20229;-48
2022/08/03 09:47:35;;;;;;;3.38;1.52;;;27.50;75.40;;;;;;5069618;28;20673;-46
2022/08/03 09:50:04;;;;;;;1.90;1.70;;;27.60;74.50;;;;;;5068146;28;20220;-49
2022/08/03 09:52:34;;;;;;;1.45;1.45;;;27.70;74.20;;;;;;5067208;28;20225;-48
2022/08/03 09:55:02;;;;;;;2.67;1.52;;;27.70;73.80;;;;;;5067578;28;20622;-45
2022/08/03 09:57:30;;;;;;;3.35;1.70;;;27.80;72.10;;;;;;5065256;28;20239;-44
2022/08/03 10:00:09;;;;;;;1.58;1.48;;;27.90;71.50;;;;;;5067918;28;20311;-49
2022/08/03 10:02:40;;;;;;;1.98;1.70;;;28.00;71.00;;;;;;5066624;28;20233;-46
2022/08/03 10:05:09;;;;;;;1.65;1.50;;;28.10;69.70;;;;;;5062569;28;20296;-46
2022/08/03 10:07:44;;;;;;;2.38;1.50;;;28.10;69.70;;;;;;5068063;28;20621;-44
2022/08/03 10:10:12;;;;;;;3.78;1.70;;;28.10;69.20;;;;;;5066129;28;20568;-45
2022/08/03 10:12:40;;;;;;;2.83;1.95;;;28.20;69.10;;;;;;5066758;28;20266;-43
2022/08/03 10:15:09;;;;;;;2.35;1.60;;;28.30;68.20;;;;;;5067204;28;20197;-47
2022/08/03 10:17:36;;;;;;;2.33;1.65;;;28.40;67.80;;;;;;5067533;28;20190;-44
2022/08/03 10:20:05;;;;;;;1.75;1.65;;;28.40;67.00;;;;;;5064628;28;20450;-41
2022/08/03 10:22:34;;;;;;;1.42;1.40;;;28.50;66.90;;;;;;5065335;28;20683;-41
2022/08/03 10:25:07;;;;;;;2.63;1.52;;;28.50;66.70;;;;;;5065838;28;20196;-42
2022/08/03 10:27:37;;;;;;;1.95;1.85;;;28.60;66.40;;;;;;5067256;28;20678;-39
2022/08/03 10:30:06;;;;;;;2.30;2.10;;;28.70;65.90;;;;;;5064787;28;20213;-42
2022/08/03 10:32:38;;;;;;;1.77;1.67;;;28.70;65.40;;;;;;5064656;28;20271;-43
2022/08/03 10:35:07;;;;;;;1.80;1.40;;;28.80;64.80;;;;;;5064876;28;20189;-45
2022/08/03 10:37:42;;;;;;;1.65;1.55;;;28.90;64.70;;;;;;5063280;28;20225;-41
2022/08/03 10:40:14;;;;;;;1.20;1.20;;;28.90;64.40;;;;;;5065281;28;20216;-47
2022/08/03 10:42:43;;;;;;;1.40;1.40;;;28.90;64.40;;;;;;5063594;28;20653;-40
2022/08/03 10:45:19;;;;;;;2.58;1.45;;;29.00;64.50;;;;;;5060161;28;20235;-44
2022/08/03 10:47:47;;;;;;;2.22;1.70;;;29.00;65.30;;;;;;5065627;28;20188;-46
2022/08/03 10:50:15;;;;;;;2.00;1.90;;;29.00;64.50;;;;;;5061910;28;20313;-40
2022/08/03 10:53:00;;;;;;;3.13;1.80;;;29.00;63.90;;;;;;5063885;28;20683;-43
2022/08/03 10:58:52;;;;;;;1.90;1.80;;;29.00;64.50;;;;;;5059519;28;20202;-42
2022/08/03 11:01:40;;;;;;;1.80;1.70;;;29.10;62.10;;;;;;5067951;28;20189;-44
2022/08/03 11:04:18;;;;;;;2.05;1.70;;;29.10;62.40;;;;;;5065886;28;20193;-39
2022/08/03 11:06:46;;;;;;;4.60;1.60;;;29.10;62.70;;;;;;5066719;28;20280;-40
2022/08/03 11:09:18;;;;;;;1.95;1.85;;;29.20;62.50;;;;;;5066686;28;20198;-41
2022/08/03 11:11:48;;;;;;;1.70;1.60;;;29.20;62.00;;;;;;5068801;28;20213;-38
2022/08/03 11:14:17;;;;;;;1.83;1.73;;;29.20;62.40;;;;;;5065955;28;20268;-40
2022/08/03 11:16:46;;;;;;;1.55;1.52;;;29.20;61.90;;;;;;5068936;28;20209;-39
2022/08/03 11:19:16;;;;;;;2.45;1.40;;;29.20;62.50;;;;;;5066803;28;20562;-41
2022/08/03 11:21:57;;;;;;;1.63;1.52;;;29.30;62.30;;;;;;5067091;28;20327;-39
2022/08/03 11:24:58;;;;;;;1.55;1.40;;;29.40;61.90;;;;;;5065904;28;20394;-42
2022/08/03 11:27:31;;;;;;;1.48;1.48;;;29.40;61.60;;;;;;5002522;28;20319;-44
2022/08/03 11:30:02;;;;;;;1.48;1.38;;;29.40;61.50;;;;;;5001759;28;20215;-44
2022/08/03 11:32:52;;;;;;;1.33;1.33;;;29.40;61.80;;;;;;5038016;28;20576;-40
2022/08/03 11:35:20;;;;;;;1.50;1.50;;;29.40;60.50;;;;;;5065257;28;20737;-43
2022/08/03 11:38:07;;;;;;;1.23;1.23;;;29.40;59.20;;;;;;5065780;28;20220;-41
2022/08/03 11:40:46;;;;;;;2.25;1.10;;;29.40;59.40;;;;;;5068470;28;20193;-40
2022/08/03 11:43:45;;;;;;;1.35;1.35;;;29.50;59.60;;;;;;5064150;28;20200;-42
2022/08/03 11:46:18;;;;;;;1.48;1.38;;;29.50;59.60;;;;;;5066381;28;20265;-42
2022/08/03 11:48:46;;;;;;;1.30;1.30;;;29.50;59.40;;;;;;5065337;28;20198;-43
2022/08/03 11:51:22;;;;;;;1.73;1.63;;;29.50;59.60;;;;;;5066416;28;20217;-45
2022/08/03 11:53:52;;;;;;;1.83;1.73;;;29.60;59.50;;;;;;5066974;28;20189;-49
2022/08/03 11:56:20;;;;;;;1.70;1.60;;;29.60;58.80;;;;;;5065880;28;20193;-47
2022/08/03 11:58:50;;;;;;;1.50;1.40;;;29.70;57.80;;;;;;5061212;28;20198;-42
2022/08/03 12:01:18;;;;;;;1.63;1.52;;;29.70;57.90;;;;;;5061065;28;20239;-45
2022/08/03 12:03:45;;;;;;;2.88;1.65;;;29.80;58.30;;;;;;5065781;28;20201;-47
2022/08/03 12:06:15;;;;;;;1.27;1.27;;;29.80;58.40;;;;;;5061973;28;20232;-44
2022/08/03 12:08:43;;;;;;;1.67;1.58;;;29.80;58.40;;;;;;5064632;28;20285;-46
2022/08/03 12:11:12;;;;;;;3.40;1.60;;;29.80;58.20;;;;;;5061564;28;20305;-45
2022/08/03 12:13:41;;;;;;;1.52;1.50;;;30.00;58.40;;;;;;5062441;28;20619;-44
2022/08/03 12:16:10;;;;;;;1.77;1.67;;;30.00;58.60;;;;;;5064488;28;20251;-44
2022/08/03 12:18:36;;;;;;;2.45;1.70;;;30.00;58.50;;;;;;5066573;28;20766;-44
2022/08/03 12:21:06;;;;;;;1.95;1.67;;;30.00;58.40;;;;;;5065654;28;20189;-47
2022/08/03 12:23:34;;;;;;;3.53;1.83;;;30.00;58.70;;;;;;5062638;28;20235;-44
2022/08/03 12:26:03;;;;;;;1.55;1.45;;;30.00;58.90;;;;;;5062254;28;20232;-45
2022/08/03 12:28:30;;;;;;;2.10;2.00;;;30.10;59.00;;;;;;5061088;28;20220;-47
2022/08/03 12:31:02;;;;;;;6.43;2.00;;;30.10;58.80;;;;;;5061620;28;20589;-41
2022/08/03 12:33:30;;;;;;;4.30;1.83;;;30.20;58.70;;;;;;5063450;28;20221;-43
2022/08/03 12:36:11;;;;;;;1.40;1.40;;;30.20;58.00;;;;;;5064390;28;20257;-46
2022/08/03 12:38:39;;;;;;;1.52;1.50;;;30.20;58.10;;;;;;5061696;28;20892;-45
2022/08/03 12:41:07;;;;;;;1.38;1.38;;;30.30;58.10;;;;;;5065514;28;20189;-46
2022/08/03 12:43:35;;;;;;;2.25;1.88;;;30.30;57.40;;;;;;5063123;28;20304;-45
2022/08/03 12:46:14;;;;;;;1.90;1.73;;;30.40;56.90;;;;;;5067439;28;20286;-44
2022/08/03 12:49:01;;;;;;;3.20;1.70;;;30.40;57.00;;;;;;5064152;28;20277;-45
2022/08/03 12:51:29;;;;;;;1.90;1.80;;;30.50;57.10;;;;;;5063768;28;20268;-45
2022/08/03 12:53:57;;;;;;;2.03;1.70;;;30.40;56.10;;;;;;5063496;28;20572;-45
2022/08/03 12:56:25;;;;;;;2.75;1.90;;;30.40;55.90;;;;;;5065683;28;20190;-42
2022/08/03 12:58:52;;;;;;;1.50;1.50;;;30.30;56.10;;;;;;5063205;28;20189;-39
2022/08/03 13:01:21;;;;;;;2.03;1.80;;;30.30;56.10;;;;;;5065072;28;20200;-41
2022/08/03 13:03:49;;;;;;;2.50;1.90;;;30.40;55.90;;;;;;5063346;28;20201;-42
2022/08/03 13:06:19;;;;;;;1.80;1.70;;;30.40;55.10;;;;;;5062532;28;20239;-43
2022/08/03 13:08:47;;;;;;;2.03;1.67;;;30.50;55.20;;;;;;5064846;28;20282;-45